Flight Track Log - Related Links

Times and Time Zones

All times are in EDT time to prevent confusion due to time zone crossing. See the N62773 flight status page for this flight to view local times or setup timezone preferences in your user account.

Time Position Orientation Groundspeed Altitude Reporting Facility
EDT Latitude Longitude Course Direction KTS MPH feet Rate Location/Type
Thu 05:24:59 PM 41.5256 -81.6619 North 97 112 1,100  Level Cleveland Center
Thu 05:25:42 PM 41.5442 -81.6594 North 111 128 1,400 132 Climbing Cleveland Center
Thu 05:26:30 PM 41.5314 -81.6900 241° Southwest 130 150 1,300 -175 Descending Cleveland Center
Thu 05:27:25 PM 41.5144 -81.7200 233° Southwest 112 129 1,100 -259 Descending Cleveland Center
Thu 05:28:26 PM 41.5042 -81.7144 158° South 94 108 800 29 Descending Cleveland Center
Thu 05:30:00 PM 41.5109 -81.8047 276° West  Level FlightAware Approximate
Thu 05:37:00 PM 41.5375 -82.1609 275° West  Level FlightAware Approximate
Thu 05:38:00 PM 41.5414 -82.2186 275° West  Level FlightAware Approximate
Thu 05:39:00 PM 41.5453 -82.2763 275° West  Level FlightAware Approximate
Thu 05:40:00 PM 41.5491 -82.3340 275° West  Level FlightAware Approximate
Thu 05:41:00 PM 41.5530 -82.3917 275° West  Level FlightAware Approximate
Thu 05:41:22 PM 41.5506 -81.6569 359° North 103 119 1,500  Level Cleveland Center
Thu 05:42:00 PM 41.5568 -82.4495 275° West  Level FlightAware Approximate
Thu 05:42:29 PM 41.5772 -81.6878 319° Northwest 118 136 2,100  Level Cleveland Center
Thu 05:43:00 PM 41.5605 -82.5072 275° West  Level FlightAware Approximate
Thu 05:44:00 PM 41.5643 -82.5650 275° West  Level FlightAware Approximate
Thu 05:44:00 PM 41.5521 -81.7690 248° West  Level FlightAware Approximate
Thu 05:44:36 PM 41.6244 -81.7608 248° West 123 142 3,300  Level Cleveland Center
Thu 05:45:00 PM 41.5680 -82.6227 275° West  Level FlightAware Approximate
Thu 05:45:37 PM 41.6450 -81.7975 307° West 114 131 3,900  Level Cleveland Center
Thu 05:46:00 PM 41.5717 -82.6805 275° West  Level FlightAware Approximate
Thu 05:46:38 PM 41.6528 -81.8392 284° West 130 150 4,400  Level Cleveland Center
Thu 05:47:26 PM 41.6525 -81.8753 269° West 129 148 4,800 440 Climbing Cleveland Center
Thu 05:48:27 PM 41.6519 -81.9253 269° West 129 148 5,200 492 Climbing Cleveland Center
Thu 05:49:28 PM 41.6556 -81.9728 276° West 121 139 5,800 347 Climbing Cleveland Center
Thu 05:50:28 PM 41.6569 -82.0200 272° West 130 150 5,900 50 Climbing Cleveland Center
Thu 05:51:29 PM 41.6583 -82.0728 272° West 145 167 5,900 49 Level Cleveland Center
Thu 05:52:30 PM 41.6597 -82.1228 272° West 136 157 6,000 49 Climbing Cleveland Center
Thu 05:53:31 PM 41.6569 -82.1728 266° West 138 159 6,000  Level Cleveland Center
Thu 05:54:37 PM 41.6603 -82.2369 274° West 141 162 6,000  Level Cleveland Center
Thu 05:55:38 PM 41.6575 -82.2894 266° West 146 168 6,000  Level Cleveland Center
Thu 05:56:33 PM 41.6589 -82.3425 272° West 160 184 6,000  Level Cleveland Center
Thu 05:57:39 PM 41.6578 -82.4064 269° West 158 182 6,000  Level Cleveland Center
Thu 05:58:40 PM 41.6611 -82.4647 274° West 160 184 6,000  Level Cleveland Center
Thu 05:59:40 PM 41.6600 -82.5286 269° West 157 181 6,000  Level Cleveland Center
Thu 06:00:41 PM 41.6464 -82.5839 252° West 157 181 6,000  Level Cleveland Center
Thu 06:01:42 PM 41.6392 -82.6419 261° West 157 181 6,000  Level Cleveland Center
Thu 06:02:42 PM 41.6278 -82.6972 255° West 156 180 6,000  Level Cleveland Center
Thu 06:03:43 PM 41.6142 -82.7522 252° West 155 178 6,000  Level Cleveland Center
Thu 06:05:00 PM 41.6272 -82.8415 281° West  Level FlightAware Approximate
Thu 06:12:00 PM 41.6273 -83.3405 269° West  Level FlightAware Approximate
Thu 06:13:00 PM 41.6261 -83.4114 269° West  Level FlightAware Approximate
Thu 06:14:00 PM 41.6250 -83.4823 269° West  Level FlightAware Approximate
Thu 06:15:00 PM 41.6238 -83.5532 269° West  Level FlightAware Approximate
Thu 06:16:00 PM 41.6226 -83.6241 269° West  Level FlightAware Approximate
Thu 06:17:00 PM 41.6213 -83.6949 269° West  Level FlightAware Approximate
Thu 06:18:00 PM 41.6200 -83.7658 269° West  Level FlightAware Approximate
Thu 06:19:00 PM 41.6186 -83.8367 269° West  Level FlightAware Approximate
Thu 06:20:00 PM 41.6172 -83.9076 268° West  Level FlightAware Approximate
Thu 06:21:00 PM 41.6196 -83.9783 275° West  Level FlightAware Approximate
Thu 06:22:00 PM 41.6717 -83.9885 352° North  Level Estimated
Thu 06:23:00 PM 41.7239 -83.9986 352° North  Level Estimated
Thu 06:24:00 PM 41.7761 -84.0088 352° North  Level Estimated
Thu 06:25:00 PM 41.8283 -84.0189 352° North  Level Estimated
Thu 06:26:00 PM 41.8804 -84.0291 352° North  Level Estimated
Thu 06:27:00 PM 41.9326 -84.0393 352° North  Level Estimated
Thu 06:28:00 PM 41.9848 -84.0496 352° North  Level Estimated
Thu 06:29:00 PM 42.0369 -84.0598 352° North  Level Estimated
Thu 06:30:00 PM 42.0891 -84.0701 352° North  Level Estimated
Thu 06:31:00 PM 42.1413 -84.0804 352° North  Level Estimated
Thu 06:32:00 PM 42.1934 -84.0906 352° North  Level Estimated
Thu 06:33:00 PM 42.2456 -84.1010 352° North  Level Estimated
Thu 06:34:00 PM 42.2977 -84.1113 352° North  Level Estimated
Thu 06:35:00 PM 42.3499 -84.1216 352° North  Level Estimated
Thu 06:36:00 PM 42.4021 -84.1320 352° North  Level Estimated
Thu 06:37:00 PM 42.4542 -84.1424 352° North  Level Estimated
Thu 06:38:00 PM 42.5064 -84.1528 352° North  Level Estimated
Thu 06:39:00 PM 42.5586 -84.1632 352° North  Level Estimated
Thu 06:40:00 PM 42.6107 -84.1736 352° North  Level Estimated
Thu 06:41:00 PM 42.6629 -84.1841 352° North  Level Estimated
Thu 06:42:00 PM 42.7150 -84.1945 352° North  Level Estimated
Thu 06:43:00 PM 42.7672 -84.2050 352° North  Level Estimated
Thu 06:44:00 PM 42.8193 -84.2155 352° North  Level Estimated
Thu 06:45:00 PM 42.8715 -84.2260 352° North  Level Estimated
Thu 06:46:00 PM 42.9236 -84.2366 352° North  Level Estimated
Thu 06:47:00 PM 42.9758 -84.2471 352° North  Level Estimated
Thu 06:48:00 PM 43.0279 -84.2577 352° North  Level Estimated
Thu 06:49:00 PM 43.0801 -84.2683 352° North  Level Estimated
Thu 06:50:00 PM 43.1322 -84.2789 352° North  Level Estimated
Thu 06:51:00 PM 43.1844 -84.2895 352° North  Level Estimated
Thu 06:51:20 PM 42.0514 -84.3972 352° North 131 151 6,000  Level Chicago Center
Thu 06:52:00 PM 43.2365 -84.3002 352° North  Level Estimated
Thu 06:52:22 PM 42.0875 -84.4128 342° North 134 154 6,000  Level Chicago Center
Thu 06:53:00 PM 43.2886 -84.3108 352° North  Level Estimated
Thu 06:53:24 PM 42.1239 -84.4294 341° North 138 159 6,000  Level Chicago Center
Thu 06:54:00 PM 43.3406 -84.3215 352° North  Level Estimated
Thu 06:54:26 PM 42.1669 -84.4469 343° North 136 157 6,000  Level Chicago Center
Thu 06:55:00 PM 43.3927 -84.3322 352° North  Level Estimated
Thu 06:55:28 PM 42.2036 -84.4619 343° North 137 158 6,000  Level Chicago Center
Thu 06:56:00 PM 43.4447 -84.3429 352° North  Level Estimated
Thu 06:56:29 PM 42.2350 -84.4933 323° Northwest 141 162 6,000  Level Chicago Center
Thu 06:57:31 PM 42.2653 -84.5275 320° Northwest 142 163 6,000  Level Chicago Center
Thu 06:58:33 PM 42.3014 -84.5503 335° Northwest 143 165 6,000 -48 Level Chicago Center
Thu 06:59:35 PM 42.3333 -84.5786 327° Northwest 140 161 5,900  Descending Chicago Center
Thu 07:00:37 PM 42.3692 -84.6167 322° Northwest 138 159 6,000 49 Climbing Chicago Center
Thu 07:01:38 PM 42.4025 -84.6450 328° Northwest 141 162 6,000 -49 Level Chicago Center
Thu 07:02:40 PM 42.4372 -84.6728 329° Northwest 143 165 5,900 48 Descending Chicago Center
Thu 07:03:42 PM 42.4681 -84.7033 324° Northwest 140 161 6,100 49 Climbing Chicago Center
Thu 07:04:43 PM 42.5028 -84.7322 328° Northwest 145 167 6,000 -49 Descending Chicago Center
Thu 07:05:45 PM 42.5375 -84.7633 327° Northwest 149 171 6,000  Level Chicago Center
Thu 07:06:47 PM 42.5706 -84.7933 326° Northwest 145 167 6,000  Level Chicago Center
Thu 07:07:49 PM 42.6039 -84.8392 315° West 151 174 6,000  Level Chicago Center
Thu 07:08:50 PM 42.6103 -84.8914 279° West 144 166 6,000  Level Chicago Center
Thu 07:09:52 PM 42.6197 -84.9422 284° West 140 161 6,000  Level Chicago Center
Thu 07:10:54 PM 42.6481 -84.9778 317° Northwest 142 163 6,000  Level Chicago Center
Thu 07:11:55 PM 42.6850 -84.9983 338° Northwest 143 165 6,000  Level Chicago Center
Thu 07:12:57 PM 42.7131 -85.0356 316° Northwest 141 162 6,000  Level Chicago Center
Thu 07:13:59 PM 42.7394 -85.0756 312° West 141 162 6,000  Level Chicago Center
Thu 07:15:00 PM 42.7700 -85.1231 311° West 141 162 6,000  Level Chicago Center
Thu 07:16:02 PM 42.7944 -85.1639 309° West 140 161 6,000  Level Chicago Center
Thu 07:17:58 PM 42.8572 -85.2111 331° Northwest 142 163 6,000  Level Minneapolis Center
Thu 07:19:00 PM 42.8981 -85.2414 331° Northwest 141 162 6,000  Level Minneapolis Center
Thu 07:20:02 PM 42.9336 -85.2647 334° Northwest 141 162 6,000 242 Level Minneapolis Center
Thu 07:21:04 PM 42.9678 -85.2900 332° Northwest 141 162 6,500 484 Climbing Minneapolis Center
Thu 07:22:06 PM 42.9975 -85.3114 332° Northwest 134 154 7,000 242 Climbing Minneapolis Center
Thu 07:23:08 PM 43.0281 -85.3325 333° Northwest 127 146 7,000  Level Minneapolis Center
Thu 07:24:11 PM 43.0631 -85.3581 332° Northwest 135 155 7,000  Level Minneapolis Center
Thu 07:25:13 PM 43.1067 -85.3872 334° Northwest 144 166 7,000  Level Minneapolis Center
Thu 07:26:19 PM 43.1428 -85.4125 333° Northwest 145 167 7,000  Level Chicago Center
Thu 07:27:21 PM 43.1786 -85.4369 334° Northwest 145 167 7,000  Level Chicago Center
Thu 07:28:23 PM 43.2222 -85.4619 337° Northwest 146 168 7,000  Level Chicago Center
Thu 07:29:25 PM 43.2636 -85.4606 North 149 171 7,000  Level Chicago Center
Thu 07:30:26 PM 43.3050 -85.4636 357° North 151 174 7,000  Level Chicago Center
Thu 07:31:28 PM 43.3467 -85.4692 354° North 151 174 7,000  Level Chicago Center
Thu 07:32:30 PM 43.3881 -85.4700 359° North 151 174 7,000  Level Chicago Center
Thu 07:33:32 PM 43.4292 -85.4731 357° North 149 171 7,000  Level Chicago Center
Thu 07:34:33 PM 43.4786 -85.4783 356° North 150 173 7,000  Level Chicago Center
Thu 07:35:35 PM 43.5208 -85.4808 358° North 152 175 7,000 48 Level Chicago Center
Thu 07:36:37 PM 43.5614 -85.4842 357° North 149 171 7,100  Climbing Chicago Center
Thu 07:37:39 PM 43.6042 -85.4875 357° North 153 176 7,000 -48 Descending Chicago Center
Thu 07:38:41 PM 43.6478 -85.4917 356° North 156 180 7,000  Level Chicago Center
Thu 07:39:42 PM 43.6886 -85.4944 357° North 152 175 7,000  Level Minneapolis Center
Thu 07:40:44 PM 43.7311 -85.4994 355° North 153 176 7,000  Level Minneapolis Center
Thu 07:41:46 PM 43.7806 -85.5028 357° North 151 174 7,000  Level Minneapolis Center
Thu 07:42:48 PM 43.8222 -85.5072 356° North 150 173 7,000  Level Minneapolis Center
Thu 07:43:50 PM 43.8642 -85.5094 358° North 152 175 7,000  Level Minneapolis Center
Thu 07:44:53 PM 43.9050 -85.5147 355° North 150 173 7,000  Level Minneapolis Center
Thu 07:45:55 PM 43.9458 -85.5164 358° North 148 170 7,000  Level Minneapolis Center
Thu 07:46:57 PM 43.9939 -85.5289 349° North 147 169 7,000 -194 Level Minneapolis Center
Thu 07:47:59 PM 44.0344 -85.5478 341° North 151 174 6,600 -435 Descending Minneapolis Center
Thu 07:49:01 PM 44.0800 -85.5681 342° North 158 182 6,100 -435 Descending Minneapolis Center
Thu 07:50:03 PM 44.1217 -85.5856 343° North 158 182 5,700 -339 Descending Minneapolis Center
Thu 07:51:05 PM 44.1617 -85.6022 343° North 152 175 5,400 -387 Descending Minneapolis Center
Thu 07:52:07 PM 44.2033 -85.6208 342° North 156 180 4,900 -435 Descending Minneapolis Center
Thu 07:53:09 PM 44.2456 -85.6408 341° North 160 184 4,500 -435 Descending Minneapolis Center
Thu 07:54:11 PM 44.2958 -85.6642 342° North 160 184 4,000 -194 Descending Minneapolis Center
Thu 07:55:13 PM 44.3322 -85.6808 342° North 146 168 4,100 48 Climbing Minneapolis Center
Thu 07:56:16 PM 44.3669 -85.6964 342° North 134 154 4,100 -48 Level Minneapolis Center
Thu 07:57:18 PM 44.4011 -85.7119 342° North 131 151 4,000 -48 Descending Minneapolis Center
Thu 07:58:20 PM 44.4375 -85.7269 344° North 133 153 4,000 48 Level Minneapolis Center
Thu 07:59:22 PM 44.4719 -85.7419 343° North 133 153 4,100 48 Climbing Minneapolis Center
Thu 08:00:24 PM 44.5128 -85.7603 342° North 129 148 4,100  Level Minneapolis Center
Thu 08:01:26 PM 44.5472 -85.7747 343° North 130 150 4,100 -290 Level Minneapolis Center
Thu 08:02:28 PM 44.5833 -85.7914 342° North 133 153 3,500 -528 Descending Minneapolis Center
Thu 08:03:31 PM 44.6211 -85.8100 341° North 139 160 3,000 -476 Descending Minneapolis Center
Thu 08:05:00 PM 44.6464 -85.7553 57° Northeast  Level FlightAware Approximate
Thu 08:12:00 PM 44.7333 -85.5667 20° North  Level FlightAware Approximate

Login

Don't have an account? Register now (free) for customized features, flight alerts, and more!